Perry, LA (70575)

3:19 PM CDT on October 20, 2019 (GMT -0500)
Lap on Cow Island Rd. (West of Perry) | | Change Station
Active Advisory: Coastal Flood Advisory Active Notice: Coastal Flood Advisory

Elev 10 ft 29.95 °N, 92.18 °W | Updated 6 minutes ago

Partly Cloudy
Partly Cloudy
89.6 °F
Feels Like 101 °F
N
13.2
Wind Variable Wind from SSW
Gusts 13.6 mph

Today
High -- | Low -- °F
--% Chance of Precip.
Yesterday
High -- | Low -- °F
Precip. -- in
Pressure 29.84 in
Visibility 10.0 miles
Clouds Scattered Clouds 3200 ft
Scattered Clouds 3700 ft
Heat Index 101 °F
Dew Point 76 °F
Humidity 64%
Rainfall 0.00 in
Snow Depth Not available.
7:13 AM 6:32 PM
Waning Gibbous, 57% visible
METAR KIYA 201955Z AUTO 16013G16KT 10SM SCT032 SCT037 29/24 A2984 RMK AO2 T02890241
Pressure 29.84 in
Visibility 10.0 miles
Clouds Scattered Clouds 3200 ft
Scattered Clouds 3700 ft
Heat Index 101 °F
Dew Point 76 °F
Humidity 64%
Rainfall 0.00 in
Snow Depth Not available.
7:13 AM 6:32 PM
Waning Gibbous, 57% visible
METAR KIYA 201955Z AUTO 16013G16KT 10SM SCT032 SCT037 29/24 A2984 RMK AO2 T02890241

Get Your Daily Forecast Email!

Thanks for signing up!

Be on the lookout for a verification email in your inbox.

You'll start receiving severe weather alerts in your inbox..

×

10-Day Weather Forecast

Almanac

Astronomy

Oct. 20, 2019 Rise Set
Actual Time
Civil Twilight
Nautical Twilight
Astronomical Twilight
Moon
Length of Visible Light
Length of Day
Tomorrow will be .
, % of the Moon is Illuminated

Today's Extremes

State Highs State Lows

Community

WunderPhotos

Category 6

Welcome to Category 6. This is the collective home for Weather Underground's featured writeups by Dr. Jeff Masters (right), Bob Henson (left), Chris Burt, and other regular contributors.

Nearby

Air Quality

  Air Quality AQ Index Pollutant
Not available.

Snow Depth

Station Depth Elevation

Earthquake Activity

City Distance Mag. Time & Date
Minimum magnitude displayed is 2.5.

Coastal Water Temperatures

Place Temperature

Stations

Nearby Weather Stations

Station Location Temp. Windchill Dew Point Humidity Wind Precip. Elev Updated Type
                   

Watches & Warnings

Coastal Flood Advisory
Issued: 3:11 PM CDT Oct. 20, 2019 – National Weather Service

... Coastal flood advisory remains in effect until 11 am CDT
Monday...

* coastal flooding... minor coastal flooding of around 1.5 to 2
feet mean higher high water or above ground level right along
the coast and around the coastal lakes and bays.

* Timing... during high tide along the coast Sunday evening into
Monday morning. Also, during high tide in the Inland Lakes and
bays during Monday morning.

* Impacts... minor flooding of roads along the coast and roads
along the tidal waterways.

Precautionary/preparedness actions...

A coastal flood advisory indicates that onshore winds and tides
will combine to generate flooding of low areas along the shore.